sensor_id;sensor_type;location;lat;lon;timestamp;P1;durP1;ratioP1;P2;durP2;ratioP2
56333;SDS011;42240;53.626;55.886;2023-03-21T00:00:18;0.40;;;0.40;;
56333;SDS011;42240;53.626;55.886;2023-03-21T00:01:52;0.40;;;0.40;;
56333;SDS011;42240;53.626;55.886;2023-03-21T00:03:25;0.50;;;0.50;;
56333;SDS011;42240;53.626;55.886;2023-03-21T00:04:58;0.40;;;0.40;;
56333;SDS011;42240;53.626;55.886;2023-03-21T00:06:46;0.50;;;0.50;;
56333;SDS011;42240;53.626;55.886;2023-03-21T00:08:20;0.50;;;0.50;;
56333;SDS011;42240;53.626;55.886;2023-03-21T00:09:54;0.50;;;0.50;;
56333;SDS011;42240;53.626;55.886;2023-03-21T00:11:36;0.50;;;0.50;;
56333;SDS011;42240;53.626;55.886;2023-03-21T00:13:09;0.50;;;0.50;;
56333;SDS011;42240;53.626;55.886;2023-03-21T00:14:44;0.50;;;0.50;;
56333;SDS011;42240;53.626;55.886;2023-03-21T00:16:18;0.50;;;0.50;;
56333;SDS011;42240;53.626;55.886;2023-03-21T00:18:03;0.40;;;0.40;;
56333;SDS011;42240;53.626;55.886;2023-03-21T00:19:42;0.47;;;0.47;;
56333;SDS011;42240;53.626;55.886;2023-03-21T00:21:18;0.50;;;0.50;;
56333;SDS011;42240;53.626;55.886;2023-03-21T00:23:13;0.40;;;0.40;;
56333;SDS011;42240;53.626;55.886;2023-03-21T00:24:47;0.50;;;0.50;;
56333;SDS011;42240;53.626;55.886;2023-03-21T00:26:20;0.40;;;0.40;;
56333;SDS011;42240;53.626;55.886;2023-03-21T00:27:54;0.45;;;0.45;;
56333;SDS011;42240;53.626;55.886;2023-03-21T00:29:39;0.50;;;0.50;;
56333;SDS011;42240;53.626;55.886;2023-03-21T00:31:13;0.47;;;0.47;;
56333;SDS011;42240;53.626;55.886;2023-03-21T00:32:47;0.50;;;0.50;;
56333;SDS011;42240;53.626;55.886;2023-03-21T00:34:27;0.50;;;0.50;;
56333;SDS011;42240;53.626;55.886;2023-03-21T00:36:19;0.40;;;0.40;;
56333;SDS011;42240;53.626;55.886;2023-03-21T00:37:53;0.40;;;0.40;;
56333;SDS011;42240;53.626;55.886;2023-03-21T00:39:26;0.50;;;0.50;;
56333;SDS011;42240;53.626;55.886;2023-03-21T00:40:59;0.50;;;0.50;;
56333;SDS011;42240;53.626;55.886;2023-03-21T00:42:46;0.50;;;0.50;;
56333;SDS011;42240;53.626;55.886;2023-03-21T00:44:19;0.50;;;0.50;;
56333;SDS011;42240;53.626;55.886;2023-03-21T00:45:52;0.50;;;0.50;;
56333;SDS011;42240;53.626;55.886;2023-03-21T00:47:25;0.50;;;0.50;;
56333;SDS011;42240;53.626;55.886;2023-03-21T00:48:58;0.43;;;0.43;;
56333;SDS011;42240;53.626;55.886;2023-03-21T00:50:31;0.50;;;0.50;;
56333;SDS011;42240;53.626;55.886;2023-03-21T00:52:06;0.50;;;0.50;;
56333;SDS011;42240;53.626;55.886;2023-03-21T00:53:56;0.50;;;0.50;;
56333;SDS011;42240;53.626;55.886;2023-03-21T00:55:32;0.43;;;0.43;;
56333;SDS011;42240;53.626;55.886;2023-03-21T00:57:05;0.50;;;0.50;;
56333;SDS011;42240;53.626;55.886;2023-03-21T00:58:38;0.50;;;0.50;;
56333;SDS011;42240;53.626;55.886;2023-03-21T01:00:12;0.40;;;0.40;;
56333;SDS011;42240;53.626;55.886;2023-03-21T01:01:46;0.50;;;0.50;;
56333;SDS011;42240;53.626;55.886;2023-03-21T01:03:19;0.50;;;0.50;;
56333;SDS011;42240;53.626;55.886;2023-03-21T01:04:56;0.40;;;0.40;;
56333;SDS011;42240;53.626;55.886;2023-03-21T01:06:30;0.50;;;0.50;;
56333;SDS011;42240;53.626;55.886;2023-03-21T01:08:11;0.40;;;0.40;;
56333;SDS011;42240;53.626;55.886;2023-03-21T01:09:59;0.40;;;0.40;;
56333;SDS011;42240;53.626;55.886;2023-03-21T01:11:32;0.40;;;0.40;;
56333;SDS011;42240;53.626;55.886;2023-03-21T01:13:06;0.40;;;0.40;;
56333;SDS011;42240;53.626;55.886;2023-03-21T01:14:40;0.40;;;0.40;;
56333;SDS011;42240;53.626;55.886;2023-03-21T01:16:13;0.50;;;0.50;;
56333;SDS011;42240;53.626;55.886;2023-03-21T01:17:47;0.40;;;0.40;;
56333;SDS011;42240;53.626;55.886;2023-03-21T01:19:21;0.40;;;0.40;;
56333;SDS011;42240;53.626;55.886;2023-03-21T01:21:19;0.47;;;0.47;;
56333;SDS011;42240;53.626;55.886;2023-03-21T01:22:53;0.50;;;0.50;;
56333;SDS011;42240;53.626;55.886;2023-03-21T01:24:26;0.50;;;0.50;;
56333;SDS011;42240;53.626;55.886;2023-03-21T01:25:59;0.50;;;0.50;;
56333;SDS011;42240;53.626;55.886;2023-03-21T01:27:32;0.50;;;0.50;;
56333;SDS011;42240;53.626;55.886;2023-03-21T01:29:05;0.40;;;0.40;;
56333;SDS011;42240;53.626;55.886;2023-03-21T01:30:38;0.50;;;0.50;;
56333;SDS011;42240;53.626;55.886;2023-03-21T01:32:17;0.50;;;0.50;;
56333;SDS011;42240;53.626;55.886;2023-03-21T01:33:50;0.40;;;0.40;;
56333;SDS011;42240;53.626;55.886;2023-03-21T01:35:23;0.45;;;0.45;;
56333;SDS011;42240;53.626;55.886;2023-03-21T01:36:58;0.40;;;0.40;;
56333;SDS011;42240;53.626;55.886;2023-03-21T01:38:31;0.50;;;0.50;;
56333;SDS011;42240;53.626;55.886;2023-03-21T01:40:04;0.40;;;0.40;;
56333;SDS011;42240;53.626;55.886;2023-03-21T01:41:39;0.40;;;0.40;;
56333;SDS011;42240;53.626;55.886;2023-03-21T01:45:00;0.40;;;0.40;;
56333;SDS011;42240;53.626;55.886;2023-03-21T01:46:44;0.50;;;0.50;;
56333;SDS011;42240;53.626;55.886;2023-03-21T01:48:53;0.40;;;0.40;;
56333;SDS011;42240;53.626;55.886;2023-03-21T01:50:30;0.47;;;0.47;;
56333;SDS011;42240;53.626;55.886;2023-03-21T01:52:10;0.50;;;0.50;;
56333;SDS011;42240;53.626;55.886;2023-03-21T01:54:05;0.40;;;0.40;;
56333;SDS011;42240;53.626;55.886;2023-03-21T01:55:40;0.40;;;0.40;;
56333;SDS011;42240;53.626;55.886;2023-03-21T01:57:36;0.50;;;0.50;;
56333;SDS011;42240;53.626;55.886;2023-03-21T01:59:38;0.47;;;0.47;;
56333;SDS011;42240;53.626;55.886;2023-03-21T02:01:18;0.40;;;0.40;;
56333;SDS011;42240;53.626;55.886;2023-03-21T02:02:58;0.40;;;0.40;;
56333;SDS011;42240;53.626;55.886;2023-03-21T02:04:53;0.40;;;0.40;;
56333;SDS011;42240;53.626;55.886;2023-03-21T02:08:44;0.50;;;0.50;;
56333;SDS011;42240;53.626;55.886;2023-03-21T02:10:19;0.50;;;0.50;;
56333;SDS011;42240;53.626;55.886;2023-03-21T02:11:56;0.40;;;0.40;;
56333;SDS011;42240;53.626;55.886;2023-03-21T02:13:33;0.50;;;0.50;;
56333;SDS011;42240;53.626;55.886;2023-03-21T02:15:10;0.50;;;0.50;;
56333;SDS011;42240;53.626;55.886;2023-03-21T02:22:40;0.40;;;0.40;;
56333;SDS011;42240;53.626;55.886;2023-03-21T02:28:44;0.40;;;0.40;;
56333;SDS011;42240;53.626;55.886;2023-03-21T02:37:48;0.50;;;0.50;;
56333;SDS011;42240;53.626;55.886;2023-03-21T02:41:47;0.40;;;0.40;;
56333;SDS011;42240;53.626;55.886;2023-03-21T02:45:48;0.50;;;0.50;;
56333;SDS011;42240;53.626;55.886;2023-03-21T02:47:28;0.43;;;0.43;;
56333;SDS011;42240;53.626;55.886;2023-03-21T02:51:22;0.50;;;0.50;;
56333;SDS011;42240;53.626;55.886;2023-03-21T02:52:59;0.50;;;0.50;;
56333;SDS011;42240;53.626;55.886;2023-03-21T02:54:36;0.40;;;0.40;;
56333;SDS011;42240;53.626;55.886;2023-03-21T02:56:22;0.50;;;0.50;;
56333;SDS011;42240;53.626;55.886;2023-03-21T02:57:59;0.40;;;0.40;;
56333;SDS011;42240;53.626;55.886;2023-03-21T02:59:48;0.50;;;0.50;;
56333;SDS011;42240;53.626;55.886;2023-03-21T03:01:37;0.40;;;0.40;;
56333;SDS011;42240;53.626;55.886;2023-03-21T03:03:11;0.40;;;0.40;;
56333;SDS011;42240;53.626;55.886;2023-03-21T03:05:13;0.40;;;0.40;;
56333;SDS011;42240;53.626;55.886;2023-03-21T03:10:36;0.40;;;0.40;;
56333;SDS011;42240;53.626;55.886;2023-03-21T03:16:10;0.40;;;0.40;;
56333;SDS011;42240;53.626;55.886;2023-03-21T03:21:51;0.40;;;0.40;;
56333;SDS011;42240;53.626;55.886;2023-03-21T03:25:25;0.40;;;0.40;;
56333;SDS011;42240;53.626;55.886;2023-03-21T03:27:18;0.40;;;0.40;;
56333;SDS011;42240;53.626;55.886;2023-03-21T03:29:00;0.40;;;0.40;;
56333;SDS011;42240;53.626;55.886;2023-03-21T03:30:39;0.40;;;0.40;;
56333;SDS011;42240;53.626;55.886;2023-03-21T03:34:19;0.40;;;0.40;;
56333;SDS011;42240;53.626;55.886;2023-03-21T03:35:56;0.40;;;0.40;;
56333;SDS011;42240;53.626;55.886;2023-03-21T03:37:38;0.40;;;0.40;;
56333;SDS011;42240;53.626;55.886;2023-03-21T03:39:13;0.40;;;0.40;;
56333;SDS011;42240;53.626;55.886;2023-03-21T03:40:57;0.30;;;0.30;;
56333;SDS011;42240;53.626;55.886;2023-03-21T03:42:51;0.30;;;0.30;;
56333;SDS011;42240;53.626;55.886;2023-03-21T03:44:44;0.40;;;0.40;;
56333;SDS011;42240;53.626;55.886;2023-03-21T03:46:23;0.40;;;0.40;;
56333;SDS011;42240;53.626;55.886;2023-03-21T03:48:23;0.40;;;0.40;;
56333;SDS011;42240;53.626;55.886;2023-03-21T03:50:06;0.40;;;0.40;;
56333;SDS011;42240;53.626;55.886;2023-03-21T03:53:40;0.32;;;0.32;;
56333;SDS011;42240;53.626;55.886;2023-03-21T03:55:17;0.40;;;0.40;;
56333;SDS011;42240;53.626;55.886;2023-03-21T03:56:55;0.30;;;0.30;;
56333;SDS011;42240;53.626;55.886;2023-03-21T03:58:28;0.35;;;0.35;;
56333;SDS011;42240;53.626;55.886;2023-03-21T04:00:18;0.40;;;0.40;;
56333;SDS011;42240;53.626;55.886;2023-03-21T04:01:55;0.40;;;0.40;;
56333;SDS011;42240;53.626;55.886;2023-03-21T04:03:28;0.40;;;0.40;;
56333;SDS011;42240;53.626;55.886;2023-03-21T04:05:17;0.40;;;0.40;;
56333;SDS011;42240;53.626;55.886;2023-03-21T04:06:52;0.40;;;0.40;;
56333;SDS011;42240;53.626;55.886;2023-03-21T04:08:28;0.30;;;0.30;;
56333;SDS011;42240;53.626;55.886;2023-03-21T04:10:03;0.40;;;0.40;;
56333;SDS011;42240;53.626;55.886;2023-03-21T04:11:43;0.40;;;0.40;;
56333;SDS011;42240;53.626;55.886;2023-03-21T04:13:16;0.40;;;0.40;;
56333;SDS011;42240;53.626;55.886;2023-03-21T04:15:12;0.30;;;0.30;;
56333;SDS011;42240;53.626;55.886;2023-03-21T04:16:50;0.30;;;0.30;;
56333;SDS011;42240;53.626;55.886;2023-03-21T04:18:23;0.30;;;0.30;;
56333;SDS011;42240;53.626;55.886;2023-03-21T04:19:57;0.30;;;0.30;;
56333;SDS011;42240;53.626;55.886;2023-03-21T04:21:43;0.40;;;0.40;;
56333;SDS011;42240;53.626;55.886;2023-03-21T04:23:18;0.30;;;0.30;;
56333;SDS011;42240;53.626;55.886;2023-03-21T04:24:53;0.40;;;0.40;;
56333;SDS011;42240;53.626;55.886;2023-03-21T04:26:26;0.38;;;0.38;;
56333;SDS011;42240;53.626;55.886;2023-03-21T04:28:22;0.30;;;0.30;;
56333;SDS011;42240;53.626;55.886;2023-03-21T04:30:03;0.30;;;0.30;;
56333;SDS011;42240;53.626;55.886;2023-03-21T04:31:49;0.30;;;0.30;;
56333;SDS011;42240;53.626;55.886;2023-03-21T04:33:22;0.32;;;0.32;;
56333;SDS011;42240;53.626;55.886;2023-03-21T04:35:01;0.28;;;0.28;;
56333;SDS011;42240;53.626;55.886;2023-03-21T04:36:35;0.30;;;0.30;;
56333;SDS011;42240;53.626;55.886;2023-03-21T04:38:17;0.30;;;0.30;;
56333;SDS011;42240;53.626;55.886;2023-03-21T04:41:23;0.30;;;0.30;;
56333;SDS011;42240;53.626;55.886;2023-03-21T04:42:56;0.30;;;0.30;;
56333;SDS011;42240;53.626;55.886;2023-03-21T04:44:31;0.30;;;0.30;;
56333;SDS011;42240;53.626;55.886;2023-03-21T04:46:04;0.30;;;0.30;;
56333;SDS011;42240;53.626;55.886;2023-03-21T04:47:37;0.30;;;0.30;;
56333;SDS011;42240;53.626;55.886;2023-03-21T04:49:11;0.30;;;0.30;;
56333;SDS011;42240;53.626;55.886;2023-03-21T04:50:46;0.30;;;0.30;;
56333;SDS011;42240;53.626;55.886;2023-03-21T04:52:19;0.30;;;0.30;;
56333;SDS011;42240;53.626;55.886;2023-03-21T04:53:54;0.30;;;0.30;;
56333;SDS011;42240;53.626;55.886;2023-03-21T04:55:29;0.30;;;0.30;;
56333;SDS011;42240;53.626;55.886;2023-03-21T04:57:03;0.30;;;0.30;;
56333;SDS011;42240;53.626;55.886;2023-03-21T04:58:36;0.28;;;0.28;;
56333;SDS011;42240;53.626;55.886;2023-03-21T05:00:12;0.30;;;0.30;;
56333;SDS011;42240;53.626;55.886;2023-03-21T05:01:46;0.20;;;0.20;;
56333;SDS011;42240;53.626;55.886;2023-03-21T05:04:52;0.30;;;0.30;;
56333;SDS011;42240;53.626;55.886;2023-03-21T05:06:25;0.25;;;0.25;;
56333;SDS011;42240;53.626;55.886;2023-03-21T05:07:59;0.20;;;0.20;;
56333;SDS011;42240;53.626;55.886;2023-03-21T05:09:32;0.20;;;0.20;;
56333;SDS011;42240;53.626;55.886;2023-03-21T05:12:38;0.30;;;0.30;;
56333;SDS011;42240;53.626;55.886;2023-03-21T05:16:22;0.30;;;0.30;;
56333;SDS011;42240;53.626;55.886;2023-03-21T05:17:58;0.30;;;0.30;;
56333;SDS011;42240;53.626;55.886;2023-03-21T05:19:56;0.30;;;0.30;;
56333;SDS011;42240;53.626;55.886;2023-03-21T05:21:32;0.30;;;0.30;;
56333;SDS011;42240;53.626;55.886;2023-03-21T05:23:24;0.20;;;0.20;;
56333;SDS011;42240;53.626;55.886;2023-03-21T05:24:57;0.28;;;0.28;;
56333;SDS011;42240;53.626;55.886;2023-03-21T05:26:52;0.20;;;0.20;;
56333;SDS011;42240;53.626;55.886;2023-03-21T05:28:32;0.20;;;0.20;;
56333;SDS011;42240;53.626;55.886;2023-03-21T05:30:13;0.30;;;0.30;;
56333;SDS011;42240;53.626;55.886;2023-03-21T05:31:50;0.20;;;0.20;;
56333;SDS011;42240;53.626;55.886;2023-03-21T05:33:24;0.20;;;0.20;;
56333;SDS011;42240;53.626;55.886;2023-03-21T05:34:57;0.20;;;0.20;;
56333;SDS011;42240;53.626;55.886;2023-03-21T05:36:31;0.17;;;0.17;;
56333;SDS011;42240;53.626;55.886;2023-03-21T05:38:10;0.20;;;0.20;;
56333;SDS011;42240;53.626;55.886;2023-03-21T05:39:53;0.20;;;0.20;;
56333;SDS011;42240;53.626;55.886;2023-03-21T05:41:31;0.20;;;0.20;;
56333;SDS011;42240;53.626;55.886;2023-03-21T05:43:07;0.20;;;0.20;;
56333;SDS011;42240;53.626;55.886;2023-03-21T05:44:40;0.20;;;0.20;;
56333;SDS011;42240;53.626;55.886;2023-03-21T05:46:15;0.20;;;0.20;;
56333;SDS011;42240;53.626;55.886;2023-03-21T05:47:49;0.20;;;0.20;;
56333;SDS011;42240;53.626;55.886;2023-03-21T05:49:26;0.10;;;0.10;;
56333;SDS011;42240;53.626;55.886;2023-03-21T05:51:03;0.20;;;0.20;;
56333;SDS011;42240;53.626;55.886;2023-03-21T05:52:37;0.20;;;0.20;;
56333;SDS011;42240;53.626;55.886;2023-03-21T05:54:16;0.20;;;0.20;;
56333;SDS011;42240;53.626;55.886;2023-03-21T05:55:51;0.20;;;0.20;;
56333;SDS011;42240;53.626;55.886;2023-03-21T05:57:42;0.20;;;0.20;;
56333;SDS011;42240;53.626;55.886;2023-03-21T05:59:23;0.20;;;0.20;;
56333;SDS011;42240;53.626;55.886;2023-03-21T06:00:59;0.20;;;0.20;;
56333;SDS011;42240;53.626;55.886;2023-03-21T06:02:36;0.20;;;0.20;;
56333;SDS011;42240;53.626;55.886;2023-03-21T06:04:13;0.20;;;0.20;;
56333;SDS011;42240;53.626;55.886;2023-03-21T06:05:46;0.20;;;0.20;;
56333;SDS011;42240;53.626;55.886;2023-03-21T06:07:25;0.20;;;0.20;;
56333;SDS011;42240;53.626;55.886;2023-03-21T06:08:59;0.28;;;0.28;;
56333;SDS011;42240;53.626;55.886;2023-03-21T06:10:34;0.20;;;0.20;;
56333;SDS011;42240;53.626;55.886;2023-03-21T06:12:08;0.20;;;0.20;;
56333;SDS011;42240;53.626;55.886;2023-03-21T06:14:12;0.20;;;0.20;;
56333;SDS011;42240;53.626;55.886;2023-03-21T06:15:48;0.20;;;0.20;;
56333;SDS011;42240;53.626;55.886;2023-03-21T06:17:25;0.20;;;0.20;;
56333;SDS011;42240;53.626;55.886;2023-03-21T06:19:03;0.20;;;0.20;;
56333;SDS011;42240;53.626;55.886;2023-03-21T06:21:03;0.20;;;0.20;;
56333;SDS011;42240;53.626;55.886;2023-03-21T06:22:36;0.20;;;0.20;;
56333;SDS011;42240;53.626;55.886;2023-03-21T06:24:10;0.25;;;0.25;;
56333;SDS011;42240;53.626;55.886;2023-03-21T06:25:44;0.20;;;0.20;;
56333;SDS011;42240;53.626;55.886;2023-03-21T06:27:19;0.20;;;0.20;;
56333;SDS011;42240;53.626;55.886;2023-03-21T06:28:56;0.20;;;0.20;;
56333;SDS011;42240;53.626;55.886;2023-03-21T06:30:30;0.20;;;0.20;;
56333;SDS011;42240;53.626;55.886;2023-03-21T06:32:23;0.20;;;0.20;;
56333;SDS011;42240;53.626;55.886;2023-03-21T06:34:01;0.20;;;0.20;;
56333;SDS011;42240;53.626;55.886;2023-03-21T06:35:36;0.20;;;0.20;;
56333;SDS011;42240;53.626;55.886;2023-03-21T06:37:10;0.20;;;0.20;;
56333;SDS011;42240;53.626;55.886;2023-03-21T06:38:43;0.20;;;0.20;;
56333;SDS011;42240;53.626;55.886;2023-03-21T06:40:18;0.22;;;0.22;;
56333;SDS011;42240;53.626;55.886;2023-03-21T06:41:51;0.20;;;0.20;;
56333;SDS011;42240;53.626;55.886;2023-03-21T06:43:24;0.20;;;0.20;;
56333;SDS011;42240;53.626;55.886;2023-03-21T06:44:58;0.20;;;0.20;;
56333;SDS011;42240;53.626;55.886;2023-03-21T06:46:32;0.20;;;0.20;;
56333;SDS011;42240;53.626;55.886;2023-03-21T06:48:05;0.20;;;0.20;;
56333;SDS011;42240;53.626;55.886;2023-03-21T06:49:54;0.30;;;0.30;;
56333;SDS011;42240;53.626;55.886;2023-03-21T06:51:27;0.20;;;0.20;;
56333;SDS011;42240;53.626;55.886;2023-03-21T06:53:13;0.20;;;0.20;;
56333;SDS011;42240;53.626;55.886;2023-03-21T06:55:07;0.20;;;0.20;;
56333;SDS011;42240;53.626;55.886;2023-03-21T06:56:41;0.20;;;0.20;;
56333;SDS011;42240;53.626;55.886;2023-03-21T06:58:17;0.20;;;0.20;;
56333;SDS011;42240;53.626;55.886;2023-03-21T06:59:51;0.20;;;0.20;;
56333;SDS011;42240;53.626;55.886;2023-03-21T07:01:27;0.20;;;0.20;;
56333;SDS011;42240;53.626;55.886;2023-03-21T07:03:10;0.30;;;0.30;;
56333;SDS011;42240;53.626;55.886;2023-03-21T07:04:43;0.20;;;0.20;;
56333;SDS011;42240;53.626;55.886;2023-03-21T07:06:23;0.20;;;0.20;;
56333;SDS011;42240;53.626;55.886;2023-03-21T07:07:58;0.20;;;0.20;;
56333;SDS011;42240;53.626;55.886;2023-03-21T07:09:34;0.20;;;0.20;;
56333;SDS011;42240;53.626;55.886;2023-03-21T07:11:10;0.20;;;0.20;;
56333;SDS011;42240;53.626;55.886;2023-03-21T07:12:44;0.20;;;0.20;;
56333;SDS011;42240;53.626;55.886;2023-03-21T07:14:44;0.20;;;0.20;;
56333;SDS011;42240;53.626;55.886;2023-03-21T07:16:19;0.20;;;0.20;;
56333;SDS011;42240;53.626;55.886;2023-03-21T07:17:57;0.20;;;0.20;;
56333;SDS011;42240;53.626;55.886;2023-03-21T07:19:31;0.20;;;0.20;;
56333;SDS011;42240;53.626;55.886;2023-03-21T07:21:05;0.20;;;0.20;;
56333;SDS011;42240;53.626;55.886;2023-03-21T07:22:39;0.20;;;0.20;;
56333;SDS011;42240;53.626;55.886;2023-03-21T07:24:13;0.30;;;0.30;;
56333;SDS011;42240;53.626;55.886;2023-03-21T07:25:47;0.20;;;0.20;;
56333;SDS011;42240;53.626;55.886;2023-03-21T07:27:21;0.20;;;0.20;;
56333;SDS011;42240;53.626;55.886;2023-03-21T07:28:55;0.20;;;0.20;;
56333;SDS011;42240;53.626;55.886;2023-03-21T07:30:28;0.20;;;0.20;;
56333;SDS011;42240;53.626;55.886;2023-03-21T07:32:01;0.25;;;0.25;;
56333;SDS011;42240;53.626;55.886;2023-03-21T07:33:35;0.20;;;0.20;;
56333;SDS011;42240;53.626;55.886;2023-03-21T07:35:10;0.22;;;0.22;;
56333;SDS011;42240;53.626;55.886;2023-03-21T07:36:46;0.30;;;0.30;;
56333;SDS011;42240;53.626;55.886;2023-03-21T07:38:19;0.20;;;0.20;;
56333;SDS011;42240;53.626;55.886;2023-03-21T07:39:54;0.30;;;0.30;;
56333;SDS011;42240;53.626;55.886;2023-03-21T07:41:32;0.30;;;0.30;;
56333;SDS011;42240;53.626;55.886;2023-03-21T07:43:17;0.20;;;0.20;;
56333;SDS011;42240;53.626;55.886;2023-03-21T07:44:51;0.20;;;0.20;;
56333;SDS011;42240;53.626;55.886;2023-03-21T07:46:26;0.30;;;0.30;;
56333;SDS011;42240;53.626;55.886;2023-03-21T07:48:00;0.20;;;0.20;;
56333;SDS011;42240;53.626;55.886;2023-03-21T07:49:38;0.20;;;0.20;;
56333;SDS011;42240;53.626;55.886;2023-03-21T07:51:11;0.20;;;0.20;;
56333;SDS011;42240;53.626;55.886;2023-03-21T07:52:44;0.20;;;0.20;;
56333;SDS011;42240;53.626;55.886;2023-03-21T07:54:17;0.30;;;0.30;;
56333;SDS011;42240;53.626;55.886;2023-03-21T07:55:54;0.20;;;0.20;;
56333;SDS011;42240;53.626;55.886;2023-03-21T07:57:27;0.30;;;0.30;;
56333;SDS011;42240;53.626;55.886;2023-03-21T08:00:33;0.30;;;0.30;;
56333;SDS011;42240;53.626;55.886;2023-03-21T08:02:08;0.20;;;0.20;;
56333;SDS011;42240;53.626;55.886;2023-03-21T08:03:45;0.20;;;0.20;;
56333;SDS011;42240;53.626;55.886;2023-03-21T08:05:20;0.30;;;0.30;;
56333;SDS011;42240;53.626;55.886;2023-03-21T08:06:54;0.20;;;0.20;;
56333;SDS011;42240;53.626;55.886;2023-03-21T08:08:29;0.20;;;0.20;;
56333;SDS011;42240;53.626;55.886;2023-03-21T08:10:03;0.22;;;0.22;;
56333;SDS011;42240;53.626;55.886;2023-03-21T08:11:38;0.30;;;0.30;;
56333;SDS011;42240;53.626;55.886;2023-03-21T08:13:12;0.22;;;0.22;;
56333;SDS011;42240;53.626;55.886;2023-03-21T08:14:46;0.22;;;0.22;;
56333;SDS011;42240;53.626;55.886;2023-03-21T08:16:19;0.30;;;0.30;;
56333;SDS011;42240;53.626;55.886;2023-03-21T08:17:52;0.20;;;0.20;;
56333;SDS011;42240;53.626;55.886;2023-03-21T08:19:26;0.30;;;0.30;;
56333;SDS011;42240;53.626;55.886;2023-03-21T08:20:59;0.20;;;0.20;;
56333;SDS011;42240;53.626;55.886;2023-03-21T08:22:33;0.20;;;0.20;;
56333;SDS011;42240;53.626;55.886;2023-03-21T08:24:08;0.20;;;0.20;;
56333;SDS011;42240;53.626;55.886;2023-03-21T08:25:42;0.22;;;0.22;;
56333;SDS011;42240;53.626;55.886;2023-03-21T08:27:16;0.30;;;0.30;;
56333;SDS011;42240;53.626;55.886;2023-03-21T08:28:52;0.30;;;0.30;;
56333;SDS011;42240;53.626;55.886;2023-03-21T08:30:32;0.20;;;0.20;;
56333;SDS011;42240;53.626;55.886;2023-03-21T08:32:06;0.30;;;0.30;;
56333;SDS011;42240;53.626;55.886;2023-03-21T08:33:42;0.30;;;0.30;;
56333;SDS011;42240;53.626;55.886;2023-03-21T08:35:16;0.20;;;0.20;;
56333;SDS011;42240;53.626;55.886;2023-03-21T08:36:52;0.28;;;0.28;;
56333;SDS011;42240;53.626;55.886;2023-03-21T08:38:26;0.20;;;0.20;;
56333;SDS011;42240;53.626;55.886;2023-03-21T08:40:11;0.30;;;0.30;;
56333;SDS011;42240;53.626;55.886;2023-03-21T08:41:48;0.30;;;0.30;;
56333;SDS011;42240;53.626;55.886;2023-03-21T08:43:25;0.20;;;0.20;;
56333;SDS011;42240;53.626;55.886;2023-03-21T08:45:04;0.30;;;0.30;;
56333;SDS011;42240;53.626;55.886;2023-03-21T08:46:47;0.20;;;0.20;;
56333;SDS011;42240;53.626;55.886;2023-03-21T08:48:32;0.22;;;0.22;;
56333;SDS011;42240;53.626;55.886;2023-03-21T08:50:07;0.20;;;0.20;;
56333;SDS011;42240;53.626;55.886;2023-03-21T08:51:41;0.20;;;0.20;;
56333;SDS011;42240;53.626;55.886;2023-03-21T08:53:17;0.20;;;0.20;;
56333;SDS011;42240;53.626;55.886;2023-03-21T08:54:51;0.20;;;0.20;;
56333;SDS011;42240;53.626;55.886;2023-03-21T08:56:25;0.20;;;0.20;;
56333;SDS011;42240;53.626;55.886;2023-03-21T08:57:58;0.20;;;0.20;;
56333;SDS011;42240;53.626;55.886;2023-03-21T08:59:33;0.20;;;0.20;;
56333;SDS011;42240;53.626;55.886;2023-03-21T09:01:06;0.30;;;0.30;;
56333;SDS011;42240;53.626;55.886;2023-03-21T09:02:43;0.20;;;0.20;;
56333;SDS011;42240;53.626;55.886;2023-03-21T09:04:18;0.25;;;0.25;;
56333;SDS011;42240;53.626;55.886;2023-03-21T09:05:52;0.30;;;0.30;;
56333;SDS011;42240;53.626;55.886;2023-03-21T09:07:28;0.20;;;0.20;;
56333;SDS011;42240;53.626;55.886;2023-03-21T09:09:05;0.20;;;0.20;;
56333;SDS011;42240;53.626;55.886;2023-03-21T09:10:40;0.30;;;0.30;;
56333;SDS011;42240;53.626;55.886;2023-03-21T09:12:13;0.30;;;0.30;;
56333;SDS011;42240;53.626;55.886;2023-03-21T09:13:47;0.30;;;0.30;;
56333;SDS011;42240;53.626;55.886;2023-03-21T09:15:22;0.30;;;0.30;;
56333;SDS011;42240;53.626;55.886;2023-03-21T09:16:57;0.22;;;0.22;;
56333;SDS011;42240;53.626;55.886;2023-03-21T09:18:33;0.20;;;0.20;;
56333;SDS011;42240;53.626;55.886;2023-03-21T09:20:24;0.20;;;0.20;;
56333;SDS011;42240;53.626;55.886;2023-03-21T09:22:02;0.30;;;0.30;;
56333;SDS011;42240;53.626;55.886;2023-03-21T09:23:36;0.20;;;0.20;;
56333;SDS011;42240;53.626;55.886;2023-03-21T09:25:09;0.30;;;0.30;;
56333;SDS011;42240;53.626;55.886;2023-03-21T09:26:42;0.20;;;0.20;;
56333;SDS011;42240;53.626;55.886;2023-03-21T09:28:16;0.20;;;0.20;;
56333;SDS011;42240;53.626;55.886;2023-03-21T09:29:49;0.20;;;0.20;;
56333;SDS011;42240;53.626;55.886;2023-03-21T09:31:23;0.20;;;0.20;;
56333;SDS011;42240;53.626;55.886;2023-03-21T09:32:58;0.22;;;0.22;;
56333;SDS011;42240;53.626;55.886;2023-03-21T09:34:32;0.30;;;0.30;;
56333;SDS011;42240;53.626;55.886;2023-03-21T09:36:06;0.30;;;0.30;;
56333;SDS011;42240;53.626;55.886;2023-03-21T09:37:47;0.20;;;0.20;;
56333;SDS011;42240;53.626;55.886;2023-03-21T09:39:21;0.20;;;0.20;;
56333;SDS011;42240;53.626;55.886;2023-03-21T09:40:58;0.20;;;0.20;;
56333;SDS011;42240;53.626;55.886;2023-03-21T09:42:57;0.20;;;0.20;;
56333;SDS011;42240;53.626;55.886;2023-03-21T09:44:44;0.20;;;0.20;;
56333;SDS011;42240;53.626;55.886;2023-03-21T09:46:43;0.20;;;0.20;;
56333;SDS011;42240;53.626;55.886;2023-03-21T09:48:30;0.30;;;0.30;;
56333;SDS011;42240;53.626;55.886;2023-03-21T09:50:33;0.30;;;0.30;;
56333;SDS011;42240;53.626;55.886;2023-03-21T09:52:17;0.30;;;0.30;;
56333;SDS011;42240;53.626;55.886;2023-03-21T09:53:56;0.20;;;0.20;;
56333;SDS011;42240;53.626;55.886;2023-03-21T09:55:34;0.30;;;0.30;;
56333;SDS011;42240;53.626;55.886;2023-03-21T09:57:15;0.20;;;0.20;;
56333;SDS011;42240;53.626;55.886;2023-03-21T09:59:23;0.20;;;0.20;;
56333;SDS011;42240;53.626;55.886;2023-03-21T10:02:53;0.20;;;0.20;;
56333;SDS011;42240;53.626;55.886;2023-03-21T10:04:34;0.30;;;0.30;;
56333;SDS011;42240;53.626;55.886;2023-03-21T10:06:10;0.28;;;0.28;;
56333;SDS011;42240;53.626;55.886;2023-03-21T10:09:57;0.30;;;0.30;;
56333;SDS011;42240;53.626;55.886;2023-03-21T10:13:22;0.20;;;0.20;;
56333;SDS011;42240;53.626;55.886;2023-03-21T10:14:59;0.20;;;0.20;;
56333;SDS011;42240;53.626;55.886;2023-03-21T10:16:35;0.20;;;0.20;;
56333;SDS011;42240;53.626;55.886;2023-03-21T10:18:23;0.20;;;0.20;;
56333;SDS011;42240;53.626;55.886;2023-03-21T10:20:22;0.30;;;0.30;;
56333;SDS011;42240;53.626;55.886;2023-03-21T10:21:55;0.20;;;0.20;;
56333;SDS011;42240;53.626;55.886;2023-03-21T10:23:32;0.20;;;0.20;;
56333;SDS011;42240;53.626;55.886;2023-03-21T10:25:06;0.20;;;0.20;;
56333;SDS011;42240;53.626;55.886;2023-03-21T10:26:44;0.30;;;0.30;;
56333;SDS011;42240;53.626;55.886;2023-03-21T10:28:20;0.22;;;0.22;;
56333;SDS011;42240;53.626;55.886;2023-03-21T10:29:58;0.30;;;0.30;;
56333;SDS011;42240;53.626;55.886;2023-03-21T10:31:32;0.30;;;0.30;;
56333;SDS011;42240;53.626;55.886;2023-03-21T10:33:06;0.28;;;0.28;;
56333;SDS011;42240;53.626;55.886;2023-03-21T10:34:45;0.20;;;0.20;;
56333;SDS011;42240;53.626;55.886;2023-03-21T10:36:25;0.30;;;0.30;;
56333;SDS011;42240;53.626;55.886;2023-03-21T10:38:02;0.20;;;0.20;;
56333;SDS011;42240;53.626;55.886;2023-03-21T10:39:40;0.20;;;0.20;;
56333;SDS011;42240;53.626;55.886;2023-03-21T10:41:15;0.30;;;0.30;;